Terminal Aerodrome Forecast
Issued by NWS

Home | Current Version | Previous Version | Text Only | Print | Product List | Glossary On
Versions: 1 2 3 4 5 6 7 8 9 10 11 12 13 14 15 16 17 18 19 20 21 22 23 24
000
FTUS41 KRNK 010541
TAFBCB
TAF
KBCB 010541Z 0106/0206 11004KT 5SM -RA BR OVC003 WS020/19040KT
     FM011300 19006KT 5SM -RA BR OVC008
     FM011700 22007KT P6SM -SHRA OVC020
     FM012300 24005KT P6SM SCT020 BKN100=

USA.gov is the U.S. government's official web portal to all federal, state and local government web resources and services.